Startpagina
METAR-TAF:

METAR-TAF

Vliegvelden :

Kuala Lumpur, Maleisië

Kuala Lumpur International Airport

breedte: 02-44N, lengte: 101-42E, hoogte: 21 m

Actueel weer

Dit bericht is 20 minuten geleden gemaakt, om 12:00 UTC
Wind 5 kt uit het westnoordwesten, variërend tussen het westzuidwesten en het noordnoordwesten
Temperatuur 30°C
Vochtigheid 75%
Druk 1009 hPa
Zicht 10 km of meer
Weinig wolken op 1700 ft, Cumulonimbus.
Verspreide wolken op 14000 ft
Gebroken wolken op 28000 ft

METAR: WMKK 211200Z 29005KT 250V340 9999 FEW017CB SCT140 BKN280 30/25 Q1009 NOSIG

Tijdstip: 20:20 (12:20 UTC)

Verwachting

Dit bericht is 1 uur en het 20 minuten geleden gemaakt, om 11:00 UTC
Verwachting geldig van 21 om 12 UTC tot 22 om 18 UTC
Wind 7 kt uit het westen
Zicht 10 km of meer
Weinig wolken op 1700 ft, Cumulonimbus.
Verspreide wolken op 14000 ft
Gebroken wolken op 28000 ft

TAF: WMKK 211100Z 2112/2218 26007KT 9999 FEW017CB SCT140 BKN280

Waarnemingen en weersverwachtingen van meer dan 4000 vliegvelden (METAR en TAF).

De beschikbare stations zijn de gele en rode punten op de kaart.

Ga met uw muis naar het station om de naam te zien.

Klik dan om waarnemingen en weersverwachtingen te zien.

kaart wijzigen: klik op de groene knoppen met een zwart kruis om in te zoomen, op de groene knop met een streepje om uit te zoomen of op de groene pijlen voor aangrenzende kaarten.


METAR-TAF: